createdAt,value
2016-03-09T16:46:10.177Z,6.01
2016-03-09T16:46:22.255Z,6
2016-03-09T16:47:22.415Z,6
2016-03-09T16:48:22.558Z,5.99
2016-03-09T16:49:22.607Z,5.91
2016-03-09T16:50:22.610Z,5.96
2016-03-09T16:51:22.644Z,5.9
2016-03-09T16:52:22.584Z,5.81
2016-03-09T16:53:22.618Z,5.83
2016-03-09T16:54:22.683Z,5.78
2016-03-09T16:55:22.420Z,5.85
2016-03-09T16:56:22.423Z,5.83
2016-03-09T16:57:22.442Z,5.89
2016-03-09T16:58:22.272Z,5.78
2016-03-09T16:59:22.432Z,5.76
2016-03-09T17:00:22.512Z,5.76
2016-03-09T17:01:22.453Z,5.78
2016-03-09T17:02:22.471Z,5.78
2016-03-09T17:03:22.442Z,5.78
2016-03-09T17:04:22.445Z,5.79
2016-03-09T17:05:22.447Z,5.75
2016-03-09T17:06:22.466Z,5.71
2016-03-09T17:07:22.594Z,5.75
2016-03-09T17:08:22.580Z,5.67
2016-03-09T17:09:22.536Z,5.74
2016-03-09T17:10:22.647Z,5.71
2016-03-09T17:11:22.463Z,5.71
2016-03-09T17:12:22.560Z,5.6
2016-03-09T17:13:22.546Z,5.63
2016-03-09T17:14:22.565Z,5.6
2016-03-09T17:15:22.521Z,5.65
2016-03-09T17:16:22.555Z,5.58
2016-03-09T17:17:22.527Z,5.54
2016-03-09T17:18:22.544Z,5.71
2016-03-09T17:19:22.594Z,5.57
2016-03-09T17:20:22.535Z,5.64
2016-03-09T17:21:22.647Z,5.57
2016-03-09T17:22:22.587Z,5.51
2016-03-09T17:23:23.355Z,5.51
2016-03-09T17:24:22.514Z,5.53
2016-03-09T17:25:22.532Z,5.56
2016-03-09T17:26:22.473Z,5.54
2016-03-09T17:27:22.537Z,5.57
2016-03-09T17:28:22.603Z,5.51
2016-03-09T17:29:22.589Z,5.53
2016-03-09T17:30:22.561Z,5.56
2016-03-09T17:31:22.579Z,5.53
2016-03-09T17:32:22.425Z,5.57
2016-03-09T17:33:22.445Z,5.54
2016-03-09T17:34:22.697Z,5.4
2016-03-09T17:35:22.606Z,5.45
2016-03-09T17:36:22.609Z,5.43
2016-03-09T17:37:22.502Z,5.42
2016-03-09T17:38:22.583Z,5.49
2016-03-09T17:39:22.444Z,5.49
2016-03-09T17:40:22.478Z,5.39
2016-03-09T17:41:22.560Z,5.39
2016-03-09T17:42:22.515Z,5.42
2016-03-09T17:43:22.440Z,5.4
2016-03-09T17:44:22.427Z,5.45
2016-03-09T17:45:21.696Z,5.36
2016-03-09T17:46:22.433Z,5.43
2016-03-09T17:47:22.436Z,5.39
2016-03-09T17:48:22.438Z,5.4
2016-03-09T17:49:22.441Z,5.43
2016-03-09T17:50:22.474Z,5.42
2016-03-09T17:51:22.446Z,5.45
2016-03-09T17:52:22.558Z,5.38
2016-03-09T17:53:22.435Z,5.38
2016-03-09T17:54:22.454Z,5.36
2016-03-09T17:55:22.441Z,5.33
2016-03-09T17:56:22.490Z,5.39
2016-03-09T17:57:22.431Z,5.33
2016-03-09T17:58:22.433Z,5.36
2016-03-09T17:59:22.561Z,5.38
2016-03-09T18:00:22.439Z,5.28
2016-03-09T18:01:22.488Z,5.42
2016-03-09T18:02:21.694Z,5.35
2016-03-09T18:03:22.431Z,5.33
2016-03-09T18:04:22.434Z,5.3
2016-03-09T18:05:22.531Z,5.35
2016-03-09T18:06:22.439Z,5.27
2016-03-09T18:07:22.426Z,5.31
2016-03-09T18:08:22.445Z,5.2
2016-03-09T18:09:22.447Z,5.3
2016-03-09T18:10:22.528Z,5.3
2016-03-09T18:11:22.469Z,5.27
2016-03-09T18:12:22.439Z,5.21
2016-03-09T18:13:22.427Z,5.21
2016-03-09T18:14:22.429Z,5.24
2016-03-09T18:15:22.432Z,5.28
2016-03-09T18:16:22.419Z,5.25
2016-03-09T18:17:22.437Z,5.24
2016-03-09T18:18:22.424Z,5.21
2016-03-09T18:19:22.427Z,5.2
2016-03-09T18:20:22.461Z,5.18
2016-03-09T18:21:22.496Z,5.13
2016-03-09T18:22:22.466Z,5.17
2016-03-09T18:23:22.423Z,5.15
2016-03-09T18:24:22.426Z,5.17
2016-03-09T18:25:22.443Z,5.18
2016-03-09T18:26:22.493Z,5.09
2016-03-09T18:27:22.417Z,5.17
2016-03-09T18:28:22.420Z,5.06
2016-03-09T18:29:22.423Z,5.18
2016-03-09T18:30:22.598Z,5.1
2016-03-09T18:31:22.428Z,5.1
2016-03-09T18:32:22.463Z,5.04
2016-03-09T18:33:22.434Z,5.03
2016-03-09T18:34:22.498Z,5.15
2016-03-09T18:35:22.423Z,5.1
2016-03-09T18:36:22.426Z,5.09
2016-03-09T18:37:22.428Z,4.99
2016-03-09T18:38:22.416Z,5.1
2016-03-09T18:39:22.497Z,5.02
2016-03-09T18:40:22.406Z,5
2016-03-09T18:41:22.486Z,5
2016-03-09T18:42:22.442Z,5.02
2016-03-09T18:43:22.414Z,5.06
2016-03-09T18:44:22.417Z,5
2016-03-09T18:45:22.403Z,4.94
2016-03-09T18:46:22.406Z,4.94
2016-03-09T18:47:22.721Z,4.97
2016-03-09T18:48:22.443Z,5
2016-03-09T18:49:22.414Z,4.96
2016-03-09T18:50:22.401Z,4.99
2016-03-09T18:51:22.404Z,4.94
2016-03-09T18:52:22.406Z,5.02
2016-03-09T18:53:22.613Z,5
2016-03-09T18:54:22.396Z,4.96
2016-03-09T18:55:22.399Z,4.97
2016-03-09T18:56:22.277Z,5
2016-03-09T18:57:22.389Z,5.02
2016-03-09T18:58:35.126Z,5
2016-03-09T18:59:22.409Z,5.02
2016-03-09T19:00:22.397Z,4.91
2016-03-09T19:01:22.400Z,5
2016-03-09T19:02:22.387Z,4.97
2016-03-09T19:03:22.405Z,4.96
2016-03-09T19:04:22.392Z,4.97
2016-03-09T19:05:22.395Z,4.97
2016-03-09T19:06:22.382Z,4.86
2016-03-09T19:07:22.417Z,4.88
2016-03-09T19:08:22.387Z,4.77
2016-03-09T19:09:22.390Z,4.8
2016-03-09T19:10:22.580Z,4.8
2016-03-09T19:11:22.380Z,4.78
2016-03-09T19:12:22.225Z,4.82
2016-03-09T19:13:22.471Z,4.75
2016-03-09T19:14:22.379Z,4.73
2016-03-09T19:15:22.375Z,4.7
2016-03-09T19:16:22.376Z,4.69
2016-03-09T19:17:22.378Z,4.72
2016-03-09T19:18:22.382Z,4.65
2016-03-09T19:19:22.384Z,4.62
2016-03-09T19:20:22.216Z,4.67
2016-03-09T19:21:22.389Z,4.63
2016-03-09T19:22:22.204Z,4.72
2016-03-09T19:23:22.331Z,4.7
2016-03-09T19:24:22.366Z,4.65
2016-03-09T19:25:22.681Z,4.6
2016-03-09T19:26:22.367Z,4.63
2016-03-09T19:27:22.370Z,4.65
2016-03-09T19:28:22.372Z,4.66
2016-03-09T19:29:22.656Z,4.63
2016-03-09T19:30:22.362Z,4.63
2016-03-09T19:31:22.364Z,4.58
2016-03-09T19:32:22.367Z,4.62
2016-03-09T19:33:22.369Z,4.55
2016-03-09T19:34:22.248Z,4.55
2016-03-09T19:35:22.344Z,4.6
2016-03-09T19:36:22.363Z,4.45
2016-03-09T19:37:22.334Z,4.47
2016-03-09T19:38:22.353Z,4.45
2016-03-09T19:39:22.355Z,4.48
2016-03-09T19:40:22.332Z,4.48
2016-03-09T19:41:22.336Z,4.44
2016-03-09T19:42:22.195Z,4.5
2016-03-09T19:43:23.075Z,4.41
2016-03-09T19:44:22.545Z,4.4
2016-03-09T19:45:22.330Z,4.41
2016-03-09T19:46:22.600Z,4.47
2016-03-09T19:47:22.188Z,4.33
2016-03-09T19:48:22.011Z,4.37
2016-03-09T19:49:22.342Z,4.27
2016-03-09T19:50:22.328Z,4.27
2016-03-09T19:51:22.544Z,4.42
2016-03-09T19:52:22.385Z,4.33
2016-03-09T19:53:22.324Z,4.3
2016-03-09T19:54:22.654Z,4.33
2016-03-09T19:55:22.307Z,4.36
2016-03-09T19:56:22.297Z,4.3
2016-03-09T19:57:22.311Z,4.24
2016-03-09T19:58:22.305Z,4.3
2016-03-09T19:59:22.315Z,4.29
2016-03-09T20:00:22.299Z,4.14
2016-03-09T20:01:22.309Z,4.15
2016-03-09T20:02:22.299Z,4.27
2016-03-09T20:03:22.283Z,4.2
2016-03-09T20:04:22.310Z,4.15
2016-03-09T20:05:22.286Z,4.18
2016-03-09T20:06:22.288Z,4.18
2016-03-09T20:07:22.279Z,4.12
2016-03-09T20:08:22.279Z,4.12
2016-03-09T20:09:22.295Z,4.18
2016-03-09T20:10:22.280Z,4.12
2016-03-09T20:11:22.294Z,4.2
2016-03-09T20:12:22.273Z,4.14
2016-03-09T20:13:22.278Z,4.14
2016-03-09T20:14:22.285Z,4.06
2016-03-09T20:15:22.270Z,4.06
2016-03-09T20:16:22.272Z,4.06
2016-03-09T20:17:22.275Z,4
2016-03-09T20:18:21.521Z,3.98
2016-03-09T20:19:22.263Z,4.04
2016-03-09T20:20:22.310Z,4.02
2016-03-09T20:21:22.106Z,4.08
2016-03-09T20:22:22.248Z,4.02
2016-03-09T20:23:22.256Z,3.98
2016-03-09T20:24:22.261Z,4.04
2016-03-09T20:25:22.266Z,3.94
2016-03-09T20:26:22.242Z,4
2016-03-09T20:27:22.234Z,4.04
2016-03-09T20:28:22.246Z,4.05
2016-03-09T20:29:22.235Z,4.04
2016-03-09T20:30:22.252Z,3.91
2016-03-09T20:31:22.299Z,4.02
2016-03-09T20:32:22.434Z,3.97
2016-03-09T20:33:22.234Z,3.96
2016-03-09T20:34:22.230Z,3.96
2016-03-09T20:35:22.225Z,4.02
2016-03-09T20:36:22.221Z,4.04
2016-03-09T20:37:22.218Z,3.98
2016-03-09T20:38:22.242Z,4.04
2016-03-09T20:39:22.230Z,4.04
2016-03-09T20:40:22.221Z,4.05
2016-03-09T20:41:22.208Z,4.04
2016-03-09T20:42:22.208Z,4.02
2016-03-09T20:43:22.208Z,3.93
2016-03-09T20:44:22.208Z,4.02
2016-03-09T20:45:22.205Z,4.04
2016-03-09T20:46:22.195Z,4.02
2016-03-09T20:47:22.272Z,4
2016-03-09T20:48:22.332Z,4.08
2016-03-09T20:49:22.197Z,4.05
2016-03-09T20:50:22.297Z,4.05
2016-03-09T20:51:22.284Z,4.02
2016-03-09T20:52:22.350Z,4.02
2016-03-09T20:53:22.271Z,3.97
2016-03-09T20:54:22.350Z,4.06
2016-03-09T20:55:22.206Z,4.04
2016-03-09T20:56:22.296Z,4.05
2016-03-09T20:57:22.270Z,3.96
2016-03-09T20:58:22.239Z,4
2016-03-09T20:59:22.297Z,4.02
2016-03-09T21:00:22.307Z,4.05
2016-03-09T21:01:22.354Z,3.98
2016-03-09T21:02:22.296Z,4.04
2016-03-09T21:03:22.348Z,4.06
2016-03-09T21:04:22.173Z,4.06
2016-03-09T21:05:22.314Z,4.06
2016-03-09T21:06:22.243Z,4.04
2016-03-09T21:07:22.234Z,4.06
2016-03-09T21:08:22.282Z,4
2016-03-09T21:09:22.130Z,4.02
2016-03-09T21:10:22.240Z,4.04
2016-03-09T21:11:21.392Z,4.05
2016-03-09T21:12:22.239Z,4.11
2016-03-09T21:13:22.134Z,3.96
2016-03-09T21:14:22.188Z,3.96
2016-03-09T21:15:22.260Z,4.04
2016-03-09T21:16:22.260Z,4.02
2016-03-09T21:17:22.273Z,4.04
2016-03-09T21:18:22.311Z,3.93
2016-03-09T21:19:25.237Z,3.97
2016-03-09T21:20:21.438Z,4.04
2016-03-09T21:21:22.400Z,3.97
2016-03-09T21:22:22.232Z,4
2016-03-09T21:23:22.247Z,3.9
2016-03-09T21:24:22.236Z,3.96
2016-03-09T21:25:22.181Z,3.96
2016-03-09T21:26:22.246Z,4
2016-03-09T21:27:22.275Z,3.96
2016-03-09T21:28:22.190Z,3.97
2016-03-09T21:29:22.114Z,3.91
2016-03-09T21:30:22.268Z,3.93
2016-03-09T21:31:22.103Z,3.93
2016-03-09T21:32:22.094Z,4
2016-03-09T21:33:22.098Z,3.97
2016-03-09T21:34:22.084Z,3.94
2016-03-09T21:35:22.089Z,4
2016-03-09T21:36:22.085Z,3.97
2016-03-09T21:37:22.088Z,3.96
2016-03-09T21:38:22.102Z,4
2016-03-09T21:39:22.087Z,4
2016-03-09T21:40:22.137Z,3.96
2016-03-09T21:41:22.078Z,3.97
2016-03-09T21:42:22.123Z,3.98
2016-03-09T21:43:22.091Z,4.05
2016-03-09T21:44:22.066Z,3.94
2016-03-09T21:45:22.078Z,4.02
2016-03-09T21:46:22.073Z,4.05
2016-03-09T21:47:22.075Z,4.04
2016-03-09T21:48:21.516Z,3.96
2016-03-09T21:49:22.283Z,3.94
2016-03-09T21:50:22.067Z,3.93
2016-03-09T21:51:22.132Z,4.04
2016-03-09T21:52:22.073Z,3.97
2016-03-09T21:53:22.044Z,4
2016-03-09T21:54:22.078Z,3.97
2016-03-09T21:55:22.050Z,3.93
2016-03-09T21:56:22.083Z,4.04
2016-03-09T21:57:22.040Z,3.93
2016-03-09T21:58:21.432Z,3.96
2016-03-09T21:59:22.046Z,3.97
2016-03-09T22:00:22.048Z,4
2016-03-09T22:01:22.035Z,3.93
2016-03-09T22:02:23.210Z,3.93
2016-03-09T22:03:22.102Z,3.98
2016-03-09T22:04:22.137Z,3.98
2016-03-09T22:05:22.748Z,4
2016-03-09T22:06:22.038Z,3.96
2016-03-09T22:07:22.189Z,3.93
2016-03-09T22:08:23.692Z,3.91
2016-03-09T22:09:22.647Z,3.94
2016-03-09T22:10:22.040Z,3.96
2016-03-09T22:11:22.028Z,3.93
2016-03-09T22:12:22.014Z,4
2016-03-09T22:13:22.001Z,3.93
2016-03-09T22:14:22.020Z,3.97
2016-03-09T22:15:22.023Z,3.96
2016-03-09T22:16:22.009Z,3.96
2016-03-09T22:17:22.028Z,3.98
2016-03-09T22:18:21.999Z,3.96
2016-03-09T22:19:22.002Z,3.94
2016-03-09T22:20:22.020Z,3.96
2016-03-09T22:21:21.991Z,3.91
2016-03-09T22:22:21.994Z,3.93
2016-03-09T22:23:21.997Z,3.96
2016-03-09T22:24:21.999Z,3.98
2016-03-09T22:25:22.002Z,3.87
2016-03-09T22:26:21.974Z,3.94
2016-03-09T22:27:21.992Z,3.9
2016-03-09T22:28:21.996Z,4.02
2016-03-09T22:29:21.982Z,3.88
2016-03-09T22:30:21.969Z,3.87
2016-03-09T22:31:21.972Z,4.02
2016-03-09T22:32:21.974Z,3.9
2016-03-09T22:33:21.962Z,3.9
2016-03-09T22:34:21.980Z,3.97
2016-03-09T22:35:21.967Z,3.87
2016-03-09T22:36:21.970Z,3.87
2016-03-09T22:37:21.957Z,3.96
2016-03-09T22:38:21.959Z,3.96
2016-03-09T22:39:21.978Z,3.9
2016-03-09T22:40:21.792Z,3.96
2016-03-09T22:41:21.956Z,3.91
2016-03-09T22:42:21.961Z,3.88
2016-03-09T22:43:21.904Z,3.98
2016-03-09T22:44:21.908Z,3.83
2016-03-09T22:45:21.884Z,3.88
2016-03-09T22:46:21.880Z,3.87
2016-03-09T22:47:21.878Z,3.91
2016-03-09T22:48:21.846Z,3.87
2016-03-09T22:49:21.874Z,3.91
2016-03-09T22:50:21.841Z,3.91
2016-03-09T22:51:21.857Z,3.9
2016-03-09T22:52:21.843Z,3.9
2016-03-09T22:53:21.828Z,3.96
2016-03-09T22:54:21.845Z,3.9
2016-03-09T22:55:21.831Z,3.94
2016-03-09T22:56:21.833Z,3.96
2016-03-09T22:57:21.866Z,3.87
2016-03-09T22:58:21.821Z,3.84
2016-03-09T22:59:21.948Z,3.79
2016-03-09T23:00:21.810Z,3.84
2016-03-09T23:01:21.812Z,3.83
2016-03-09T23:02:21.815Z,3.8
2016-03-09T23:03:21.801Z,3.86
2016-03-09T23:04:21.805Z,3.87
2016-03-09T23:05:21.807Z,3.79
2016-03-09T23:06:21.810Z,3.78
2016-03-09T23:07:21.796Z,3.86
2016-03-09T23:08:21.799Z,3.79
2016-03-09T23:09:21.802Z,3.8
2016-03-09T23:10:21.789Z,3.88
2016-03-09T23:11:21.792Z,3.78
2016-03-09T23:12:21.809Z,3.8
2016-03-09T23:13:21.781Z,3.9
2016-03-09T23:14:21.784Z,3.79
2016-03-09T23:15:21.786Z,3.78
2016-03-09T23:16:21.774Z,3.84
2016-03-09T23:17:21.777Z,3.84
2016-03-09T23:18:21.780Z,3.79
2016-03-09T23:19:21.766Z,3.75
2016-03-09T23:21:21.787Z,3.8
2016-03-09T23:22:21.775Z,3.78
2016-03-09T23:23:21.761Z,3.86
2016-03-09T23:24:21.764Z,3.84
2016-03-09T23:25:21.751Z,3.84
2016-03-09T23:26:21.770Z,3.75
2016-03-09T23:27:21.854Z,3.84
2016-03-09T23:28:21.791Z,3.84
2016-03-09T23:29:21.591Z,3.83
2016-03-09T23:30:21.839Z,3.8
2016-03-09T23:31:21.748Z,3.83
2016-03-09T23:32:21.782Z,3.8
2016-03-09T23:33:22.238Z,3.83
2016-03-09T23:34:21.772Z,3.83
2016-03-09T23:35:21.744Z,3.88
2016-03-09T23:36:21.730Z,3.84
2016-03-09T23:37:21.732Z,3.83
2016-03-09T23:38:21.735Z,3.9
2016-03-09T23:39:21.722Z,3.79
2016-03-09T23:40:21.725Z,3.79
2016-03-09T23:41:21.727Z,3.84
2016-03-09T23:42:21.606Z,3.87
2016-03-09T23:43:21.733Z,3.8
2016-03-09T23:44:21.721Z,3.8
2016-03-09T23:45:21.723Z,3.87
2016-03-09T23:46:21.710Z,3.87
2016-03-09T23:47:21.713Z,3.87
2016-03-09T23:48:21.732Z,3.87
2016-03-09T23:49:21.702Z,3.83
2016-03-09T23:50:21.720Z,3.88
2016-03-09T23:51:21.707Z,3.87
2016-03-09T23:52:21.710Z,3.88
2016-03-09T23:53:21.729Z,3.9
2016-03-09T23:54:21.700Z,3.91
2016-03-09T23:55:21.704Z,3.88
2016-03-09T23:56:21.690Z,3.91
2016-03-09T23:57:21.756Z,3.8
2016-03-09T23:58:21.711Z,3.83
2016-03-09T23:59:21.698Z,3.9
